Time;durP1;ratioP1;P1;durP2;ratioP2;P2;SDS_P1;SDS_P2;PMS_P1;PMS_P2;Temp;Humidity;BMP_temperature;BMP_pressure;BME280_temperature;BME280_humidity;BME280_pressure;Samples;Min_cycle;Max_cycle;Signal;HPM_P1;HPM_P2
2022/02/04 00:01:10;;;;;;;27.02;25.13;;;6.30;92.90;;;;;;5075509;28;20211;-72
2022/02/04 00:09:11;;;;;;;25.05;23.33;;;6.50;92.10;;;;;;5075339;28;20214;-72
2022/02/04 00:23:08;;;;;;;24.73;22.80;;;6.60;94.70;;;;;;5032721;28;20273;-72
2022/02/04 00:25:48;;;;;;;25.92;23.92;;;6.60;93.90;;;;;;5070226;28;20268;-71
2022/02/04 00:28:23;;;;;;;24.77;22.98;;;6.60;94.40;;;;;;5074731;28;20200;-72
2022/02/04 00:31:03;;;;;;;24.23;22.52;;;6.70;94.30;;;;;;5074602;28;20219;-72
2022/02/04 00:33:34;;;;;;;27.20;25.10;;;6.80;93.70;;;;;;5074789;28;20279;-71
2022/02/04 00:36:08;;;;;;;25.73;23.85;;;6.90;93.20;;;;;;5074625;28;20566;-71
2022/02/04 00:38:39;;;;;;;26.73;24.88;;;6.90;92.20;;;;;;5074588;28;20221;-71
2022/02/04 00:41:09;;;;;;;25.80;23.90;;;6.90;92.40;;;;;;5074290;28;20223;-71
2022/02/04 00:43:37;;;;;;;26.73;24.83;;;6.80;92.60;;;;;;5074756;28;20227;-71
2022/02/04 00:46:10;;;;;;;26.63;24.52;;;6.90;92.30;;;;;;5074725;28;20193;-72
2022/02/04 00:48:45;;;;;;;25.60;23.75;;;6.80;93.70;;;;;;5074409;28;20236;-73
2022/02/04 00:51:18;;;;;;;25.52;23.73;;;6.90;93.60;;;;;;5074387;28;20306;-73
2022/02/04 00:53:53;;;;;;;26.00;24.20;;;6.90;93.60;;;;;;5074427;28;20259;-73
2022/02/04 00:56:27;;;;;;;26.67;24.75;;;6.80;92.60;;;;;;5074346;28;20210;-73
2022/02/04 01:26:23;;;;;;;25.80;23.95;;;6.90;93.00;;;;;;5073825;28;20672;-73
2022/02/04 01:28:53;;;;;;;24.55;22.85;;;7.00;93.10;;;;;;5073748;28;20253;-71
2022/02/04 01:31:21;;;;;;;24.67;22.98;;;7.10;92.60;;;;;;5073336;28;20697;-71
2022/02/04 01:33:48;;;;;;;85.55;28.90;;;7.10;92.40;;;;;;5073522;28;20604;-72
2022/02/04 01:36:17;;;;;;;23.00;21.50;;;7.10;93.60;;;;;;5073446;28;20236;-73
2022/02/04 01:38:45;;;;;;;25.65;23.85;;;7.20;93.10;;;;;;5073414;28;20197;-73
2022/02/04 01:41:13;;;;;;;24.00;22.40;;;7.20;92.20;;;;;;5073166;28;20300;-71
2022/02/04 01:43:41;;;;;;;23.80;22.20;;;7.30;91.80;;;;;;5073177;28;20220;-71
2022/02/04 01:46:10;;;;;;;23.55;22.05;;;7.40;90.60;;;;;;5073310;28;20197;-71
2022/02/04 01:48:38;;;;;;;23.67;22.08;;;7.30;90.60;;;;;;5073129;28;20673;-71
2022/02/04 01:51:06;;;;;;;23.40;21.90;;;7.30;90.60;;;;;;5072925;28;20217;-71
2022/02/04 01:53:35;;;;;;;23.70;21.92;;;7.30;90.30;;;;;;5073119;28;20192;-71
2022/02/04 01:56:04;;;;;;;22.45;20.95;;;7.30;92.40;;;;;;5072873;28;20296;-71
2022/02/04 01:58:31;;;;;;;23.02;21.63;;;7.40;91.30;;;;;;5073099;28;20279;-71
2022/02/04 02:00:58;;;;;;;23.35;21.85;;;7.40;91.10;;;;;;5072541;28;20232;-71
2022/02/04 02:03:26;;;;;;;22.70;21.30;;;7.40;91.10;;;;;;5072785;28;21048;-71
2022/02/04 02:05:56;;;;;;;22.65;21.20;;;7.50;91.00;;;;;;5072809;28;20235;-71
2022/02/04 02:08:23;;;;;;;24.15;22.55;;;7.50;90.80;;;;;;5072889;28;20627;-71
2022/02/04 02:10:51;;;;;;;23.58;21.65;;;7.50;90.10;;;;;;5072011;28;20735;-71
2022/02/04 02:13:28;;;;;;;22.33;20.92;;;7.50;90.40;;;;;;5072618;28;20618;-72
2022/02/04 02:16:06;;;;;;;23.30;21.85;;;7.40;90.60;;;;;;5072713;28;20193;-73
2022/02/04 02:35:33;;;;;;;23.70;22.15;;;7.50;90.10;;;;;;5072702;28;20183;-73
2022/02/04 02:43:55;;;;;;;23.58;22.00;;;7.50;90.60;;;;;;5072439;28;20310;-71
2022/02/04 02:46:42;;;;;;;24.33;22.70;;;7.50;91.00;;;;;;5072364;28;20210;-71
2022/02/04 02:49:35;;;;;;;24.33;22.38;;;7.60;90.70;;;;;;5072107;28;20236;-71
2022/02/04 02:52:13;;;;;;;23.48;21.88;;;7.60;90.30;;;;;;5072202;28;20557;-71
2022/02/04 02:57:47;;;;;;;24.17;22.65;;;7.60;89.70;;;;;;5072183;28;20709;-71
2022/02/04 03:00:26;;;;;;;24.20;22.60;;;7.50;90.10;;;;;;5072063;28;20309;-71
2022/02/04 03:02:58;;;;;;;25.38;23.25;;;7.50;91.80;;;;;;5072269;28;20212;-72
2022/02/04 03:05:25;;;;;;;24.83;23.02;;;7.50;91.30;;;;;;5072443;28;20232;-71
2022/02/04 03:07:51;;;;;;;24.33;22.73;;;7.50;90.90;;;;;;5072138;28;20287;-71
2022/02/04 03:10:20;;;;;;;24.48;22.88;;;7.50;90.70;;;;;;5071766;28;20220;-71
2022/02/04 03:12:48;;;;;;;24.98;23.23;;;7.50;91.20;;;;;;5072093;28;20279;-71
2022/02/04 03:15:15;;;;;;;24.27;22.65;;;7.50;91.00;;;;;;5072128;28;20200;-71
2022/02/04 03:17:44;;;;;;;25.23;23.52;;;7.50;90.90;;;;;;5072010;28;20228;-71
2022/02/04 03:20:13;;;;;;;25.50;23.75;;;7.40;90.90;;;;;;5071615;28;20211;-71
2022/02/04 03:22:40;;;;;;;24.98;23.38;;;7.30;91.20;;;;;;5072080;28;20726;-71
2022/02/04 03:25:11;;;;;;;24.60;22.90;;;7.30;91.70;;;;;;5075934;28;20201;-71
2022/02/04 03:27:44;;;;;;;23.75;22.25;;;7.40;91.50;;;;;;5075953;28;20740;-71
2022/02/04 03:30:17;;;;;;;25.67;23.90;;;7.50;91.30;;;;;;5075638;28;20242;-71
2022/02/04 03:32:49;;;;;;;24.23;22.33;;;7.40;94.10;;;;;;5075867;28;20199;-71
2022/02/04 03:35:20;;;;;;;23.83;22.42;;;7.40;93.30;;;;;;5075840;28;20273;-71
2022/02/04 03:37:48;;;;;;;23.98;22.48;;;7.40;93.20;;;;;;5075830;28;20197;-71
2022/02/04 03:40:17;;;;;;;23.10;21.70;;;7.40;92.90;;;;;;5075367;28;20765;-71
2022/02/04 03:42:45;;;;;;;24.63;22.83;;;7.40;92.40;;;;;;5075539;28;20284;-71
2022/02/04 03:45:12;;;;;;;23.08;21.58;;;7.40;92.30;;;;;;5075678;28;20568;-71
2022/02/04 03:47:39;;;;;;;21.67;20.48;;;7.50;92.30;;;;;;5075621;28;20204;-71
2022/02/04 03:50:07;;;;;;;21.85;20.45;;;7.60;91.30;;;;;;5075113;28;20299;-71
2022/02/04 03:52:34;;;;;;;22.75;21.45;;;7.50;90.90;;;;;;5075440;28;20284;-71
2022/02/04 03:55:01;;;;;;;23.20;21.77;;;7.50;90.80;;;;;;5075321;28;20284;-71
2022/02/04 03:57:28;;;;;;;23.67;22.10;;;7.60;90.10;;;;;;5075361;28;20196;-71
2022/02/04 03:59:57;;;;;;;22.77;21.48;;;7.70;89.30;;;;;;5075074;28;20197;-72
2022/02/04 04:02:24;;;;;;;105.63;28.55;;;7.80;89.90;;;;;;5075031;28;20208;-71
2022/02/04 04:04:50;;;;;;;23.90;22.38;;;7.70;92.10;;;;;;5075076;28;20715;-71
2022/02/04 04:07:17;;;;;;;22.70;21.30;;;7.60;91.10;;;;;;5075060;28;20278;-72
2022/02/04 04:09:49;;;;;;;24.20;22.80;;;7.60;90.60;;;;;;5074869;28;20197;-73
2022/02/04 04:12:18;;;;;;;23.90;22.30;;;7.50;90.10;;;;;;5075095;28;20204;-73
2022/02/04 04:14:46;;;;;;;22.98;21.58;;;7.60;89.80;;;;;;5074865;28;20193;-73
2022/02/04 04:17:15;;;;;;;24.45;22.90;;;7.50;91.40;;;;;;5075115;28;20197;-73
2022/02/04 04:19:42;;;;;;;25.17;23.60;;;7.60;91.70;;;;;;5074435;28;20196;-71
2022/02/04 04:22:08;;;;;;;25.20;23.70;;;7.60;91.80;;;;;;5075112;28;20283;-71
2022/02/04 04:24:35;;;;;;;23.15;21.60;;;7.50;91.10;;;;;;5074670;28;20710;-71
2022/02/04 04:27:04;;;;;;;24.38;22.75;;;7.50;91.00;;;;;;5074659;28;20679;-71
2022/02/04 04:29:31;;;;;;;23.70;22.27;;;7.60;90.50;;;;;;5074667;28;20196;-70
2022/02/04 04:31:58;;;;;;;22.73;21.33;;;7.70;89.70;;;;;;5074622;28;20306;-71
2022/02/04 04:34:26;;;;;;;24.10;22.60;;;7.70;89.40;;;;;;5074147;28;20663;-71
2022/02/04 04:36:53;;;;;;;23.48;22.08;;;7.70;89.60;;;;;;5074717;28;20203;-71
2022/02/04 04:39:25;;;;;;;24.60;23.00;;;7.60;89.90;;;;;;5074318;28;20273;-71
2022/02/04 04:42:07;;;;;;;22.90;21.50;;;7.60;89.90;;;;;;5074558;28;20702;-71
2022/02/04 04:45:00;;;;;;;24.33;22.77;;;7.50;89.80;;;;;;5074354;28;20274;-71
2022/02/04 05:26:22;;;;;;;23.92;22.52;;;7.50;90.20;;;;;;5073861;28;20353;-71
2022/02/04 05:28:59;;;;;;;23.98;22.38;;;7.40;90.40;;;;;;5073480;28;20207;-71
2022/02/04 05:31:26;;;;;;;23.52;21.90;;;7.30;90.80;;;;;;5073631;28;20216;-71
2022/02/04 05:33:52;;;;;;;24.90;23.30;;;7.20;91.40;;;;;;5073580;28;20283;-71
2022/02/04 05:36:19;;;;;;;24.63;23.02;;;7.20;91.80;;;;;;5073525;28;20200;-73
2022/02/04 05:38:49;;;;;;;24.02;22.52;;;7.40;91.30;;;;;;5073336;28;20204;-73
2022/02/04 05:41:22;;;;;;;24.75;23.20;;;7.40;93.40;;;;;;5073036;28;20256;-73
2022/02/04 05:43:49;;;;;;;22.60;21.10;;;7.40;91.60;;;;;;5073290;28;20220;-73
2022/02/04 05:46:20;;;;;;;24.55;23.05;;;7.40;91.00;;;;;;5072521;28;20289;-73
2022/02/04 05:48:51;;;;;;;20.35;19.15;;;7.40;90.20;;;;;;5073356;28;20196;-73
2022/02/04 05:51:30;;;;;;;22.95;21.48;;;7.40;89.90;;;;;;5073036;28;20217;-73
2022/02/04 05:54:06;;;;;;;22.45;21.05;;;7.50;89.30;;;;;;5073179;28;20349;-73
2022/02/04 05:56:39;;;;;;;22.38;20.77;;;7.40;89.70;;;;;;5073109;28;20674;-73
2022/02/04 05:59:14;;;;;;;23.55;22.15;;;7.40;90.40;;;;;;5072949;28;20728;-73
2022/02/04 06:01:49;;;;;;;22.30;21.00;;;7.40;89.90;;;;;;5072753;28;20224;-73
2022/02/04 06:04:34;;;;;;;23.27;21.75;;;7.30;90.30;;;;;;5072853;28;20246;-73
2022/02/04 06:23:45;;;;;;;24.85;23.38;;;7.30;90.80;;;;;;5072489;28;20239;-73
2022/02/04 06:26:14;;;;;;;23.33;21.85;;;7.40;90.60;;;;;;5072705;28;20197;-73
2022/02/04 06:28:41;;;;;;;24.15;22.60;;;7.30;90.60;;;;;;5072367;28;20549;-73
2022/02/04 06:31:09;;;;;;;24.40;22.80;;;7.30;90.80;;;;;;5072247;28;20238;-73
2022/02/04 06:33:36;;;;;;;23.50;22.10;;;7.30;90.50;;;;;;5072512;28;20206;-73
2022/02/04 06:36:04;;;;;;;25.30;23.70;;;7.20;90.50;;;;;;5072346;28;20211;-73
2022/02/04 06:38:31;;;;;;;23.33;21.92;;;7.20;90.70;;;;;;5072451;28;20202;-73
2022/02/04 06:40:58;;;;;;;22.95;21.35;;;7.20;90.60;;;;;;5072207;28;20581;-73
2022/02/04 06:43:26;;;;;;;24.75;23.35;;;7.20;90.60;;;;;;5072322;28;20282;-73
2022/02/04 06:45:53;;;;;;;24.33;22.92;;;7.20;90.70;;;;;;5072599;28;20223;-73
2022/02/04 06:48:20;;;;;;;26.00;24.40;;;7.20;90.70;;;;;;5072311;28;20206;-73
2022/02/04 06:50:47;;;;;;;23.67;22.27;;;7.20;90.70;;;;;;5072063;28;20705;-73
2022/02/04 06:53:14;;;;;;;25.92;24.23;;;7.20;90.50;;;;;;5072285;28;20540;-73
2022/02/04 06:55:41;;;;;;;25.25;23.10;;;7.20;91.40;;;;;;5072297;28;20527;-73
2022/02/04 06:58:09;;;;;;;24.90;23.10;;;7.10;91.80;;;;;;5072046;28;20232;-73
2022/02/04 07:00:39;;;;;;;23.98;22.48;;;7.10;92.90;;;;;;5071868;28;20221;-73
2022/02/04 07:03:05;;;;;;;26.15;24.45;;;7.10;92.70;;;;;;5072338;28;20205;-73
2022/02/04 07:05:39;;;;;;;25.33;23.92;;;7.20;91.80;;;;;;5071967;28;20222;-73
2022/02/04 07:08:11;;;;;;;25.60;24.02;;;7.30;91.10;;;;;;5072260;28;20228;-73
2022/02/04 07:10:53;;;;;;;26.90;24.73;;;7.40;90.40;;;;;;5071870;28;20248;-71
2022/02/04 07:13:24;;;;;;;25.13;23.33;;;7.20;92.70;;;;;;5071968;28;20236;-71
2022/02/04 07:15:57;;;;;;;23.42;21.90;;;7.20;92.90;;;;;;5072129;28;20234;-72
2022/02/04 07:21:09;;;;;;;25.13;23.42;;;7.40;90.90;;;;;;5071904;28;20616;-73
2022/02/04 07:23:36;;;;;;;25.35;23.60;;;7.40;91.00;;;;;;5071947;28;20657;-73
2022/02/04 07:26:04;;;;;;;24.02;22.58;;;7.40;90.80;;;;;;5071796;28;20693;-73
2022/02/04 07:28:31;;;;;;;24.55;22.95;;;7.30;90.80;;;;;;5071831;28;20197;-73
2022/02/04 07:31:02;;;;;;;24.42;22.80;;;7.30;90.80;;;;;;5071636;28;20296;-73
2022/02/04 07:33:38;;;;;;;23.95;22.55;;;7.20;91.20;;;;;;5071748;28;20215;-73
2022/02/04 07:41:33;;;;;;;24.85;23.30;;;7.40;93.70;;;;;;5050287;28;20558;-73
2022/02/04 07:44:00;;;;;;;24.50;22.90;;;7.40;93.60;;;;;;5071596;28;20201;-73
2022/02/04 07:46:30;;;;;;;23.15;21.67;;;7.50;92.20;;;;;;5071742;28;20204;-73
2022/02/04 07:48:57;;;;;;;24.95;23.20;;;7.60;91.00;;;;;;5071674;28;20196;-73
2022/02/04 07:51:24;;;;;;;25.73;24.13;;;7.60;90.80;;;;;;5071495;28;20698;-73
2022/02/04 07:53:51;;;;;;;23.80;22.17;;;7.60;90.80;;;;;;5071737;28;20567;-73
2022/02/04 07:56:22;;;;;;;24.13;22.63;;;7.80;91.50;;;;;;5071491;28;20192;-73
2022/02/04 07:58:55;;;;;;;24.23;22.80;;;7.90;90.20;;;;;;5071529;28;20201;-73
2022/02/04 08:01:26;;;;;;;24.27;22.65;;;7.90;91.30;;;;;;5071322;28;20236;-73
2022/02/04 08:04:02;;;;;;;23.95;22.45;;;8.00;90.10;;;;;;5071469;28;20201;-73
2022/02/04 08:06:32;;;;;;;24.25;22.67;;;7.90;89.70;;;;;;5071563;28;20200;-73
2022/02/04 08:09:05;;;;;;;26.23;24.70;;;7.90;89.50;;;;;;5072222;28;20231;-73
2022/02/04 08:11:56;;;;;;;26.17;24.48;;;8.00;89.10;;;;;;5075020;28;20576;-73
2022/02/04 08:14:42;;;;;;;26.00;24.08;;;8.00;88.80;;;;;;5074821;28;20262;-73
2022/02/04 08:17:36;;;;;;;24.95;23.45;;;8.10;88.50;;;;;;5074936;28;20197;-73
2022/02/04 08:20:24;;;;;;;25.17;23.50;;;8.00;88.40;;;;;;5075030;28;20231;-73
2022/02/04 08:26:02;;;;;;;25.60;24.00;;;8.00;87.40;;;;;;5053172;28;20246;-73
2022/02/04 08:28:51;;;;;;;24.73;22.98;;;8.00;87.50;;;;;;5074842;28;20662;-73
2022/02/04 08:31:32;;;;;;;26.13;24.52;;;7.90;87.60;;;;;;5074759;28;20224;-73
2022/02/04 08:46:36;;;;;;;26.20;24.50;;;8.00;87.90;;;;;;5072555;28;20193;-73
2022/02/04 08:51:22;;;;;;;26.58;24.90;;;7.90;87.70;;;;;;5026644;28;20300;-73
2022/02/04 08:54:09;;;;;;;28.55;26.75;;;8.00;87.40;;;;;;5074402;28;20196;-73
2022/02/04 08:56:41;;;;;;;26.95;25.15;;;8.20;87.20;;;;;;5074506;28;20201;-73
2022/02/04 08:59:15;;;;;;;24.48;22.98;;;8.20;87.00;;;;;;5074406;28;20204;-73
2022/02/04 09:01:49;;;;;;;25.45;23.77;;;8.20;87.00;;;;;;5074150;28;20696;-73
2022/02/04 09:04:18;;;;;;;24.30;22.80;;;8.40;86.90;;;;;;5074183;28;20732;-73
2022/02/04 09:06:50;;;;;;;24.63;23.23;;;8.50;85.90;;;;;;5074283;28;20202;-73
2022/02/04 09:09:30;;;;;;;26.08;24.48;;;8.50;85.10;;;;;;5074047;28;20314;-73
2022/02/04 09:12:09;;;;;;;25.70;24.10;;;8.60;85.10;;;;;;5074089;28;20216;-73
2022/02/04 09:17:39;;;;;;;28.48;26.77;;;8.90;84.80;;;;;;5073983;28;20200;-73
2022/02/04 09:20:11;;;;;;;26.65;25.05;;;9.00;83.90;;;;;;5073567;28;20274;-73
2022/02/04 09:22:43;;;;;;;26.88;25.17;;;9.20;83.80;;;;;;5073891;28;20200;-73
2022/02/04 09:25:11;;;;;;;26.80;25.00;;;9.30;83.40;;;;;;5073839;28;20216;-73
2022/02/04 09:27:40;;;;;;;26.50;24.90;;;9.50;83.00;;;;;;5073853;28;20782;-73
2022/02/04 09:30:09;;;;;;;25.70;24.10;;;9.60;81.60;;;;;;5073125;28;20478;-73
2022/02/04 09:32:38;;;;;;;27.42;25.83;;;9.60;81.70;;;;;;5073637;28;20466;-73
2022/02/04 09:35:08;;;;;;;24.27;22.70;;;9.60;80.90;;;;;;5073435;28;20561;-73
2022/02/04 09:37:36;;;;;;;25.02;23.42;;;9.40;81.70;;;;;;5073494;28;20546;-73
2022/02/04 09:40:04;;;;;;;22.10;20.90;;;9.30;81.80;;;;;;5073270;28;20213;-73
2022/02/04 09:42:33;;;;;;;24.00;22.60;;;9.40;81.30;;;;;;5073495;28;20659;-73
2022/02/04 09:45:00;;;;;;;23.50;22.10;;;9.30;80.90;;;;;;5073290;28;20481;-73
2022/02/04 09:47:34;;;;;;;23.57;22.30;;;9.30;81.20;;;;;;5073501;28;20458;-73
2022/02/04 09:50:04;;;;;;;24.00;22.50;;;9.10;80.90;;;;;;5072979;28;20506;-73
2022/02/04 10:07:19;;;;;;;25.40;24.00;;;9.70;79.70;;;;;;5071551;28;20490;-73
2022/02/04 10:15:53;;;;;;;24.83;23.33;;;9.60;79.70;;;;;;5092330;28;20541;-73
2022/02/04 10:18:32;;;;;;;24.13;22.73;;;9.90;79.50;;;;;;5110018;28;20442;-73
2022/02/04 10:21:04;;;;;;;26.70;25.20;;;10.10;77.40;;;;;;5109926;28;20459;-73
2022/02/04 10:23:48;;;;;;;25.23;23.90;;;10.10;76.40;;;;;;5110101;28;20453;-73
2022/02/04 10:26:16;;;;;;;23.83;22.43;;;10.10;76.30;;;;;;5109872;28;20457;-73
2022/02/04 10:28:44;;;;;;;23.47;22.17;;;10.00;76.40;;;;;;5109799;28;20958;-73
2022/02/04 10:31:16;;;;;;;24.10;22.87;;;10.10;76.20;;;;;;5109620;28;20568;-73
2022/02/04 10:33:57;;;;;;;23.07;21.80;;;10.10;76.20;;;;;;5109903;28;20529;-73
2022/02/04 10:36:48;;;;;;;23.70;22.30;;;10.10;76.20;;;;;;5109800;28;20511;-73
2022/02/04 10:39:29;;;;;;;23.93;22.73;;;10.10;75.60;;;;;;5109570;28;20459;-73
2022/02/04 10:42:07;;;;;;;23.53;22.23;;;10.10;75.00;;;;;;5109534;28;20470;-73
2022/02/04 10:44:47;;;;;;;23.80;22.40;;;10.10;75.70;;;;;;5109582;28;20457;-73
2022/02/04 10:47:32;;;;;;;25.00;23.50;;;10.10;78.70;;;;;;5109467;28;20446;-73
2022/02/04 10:50:07;;;;;;;23.77;22.40;;;10.30;77.70;;;;;;5109338;28;20475;-73
2022/02/04 10:52:53;;;;;;;24.00;22.70;;;10.40;77.20;;;;;;5109321;28;20862;-73
2022/02/04 10:58:23;;;;;;;23.60;22.30;;;10.80;74.30;;;;;;5109489;28;20430;-73
2022/02/04 11:01:10;;;;;;;23.17;21.77;;;10.70;73.40;;;;;;5109256;28;20519;-73
2022/02/04 11:03:42;;;;;;;24.00;22.70;;;10.60;73.20;;;;;;5109368;28;20458;-73
2022/02/04 11:06:20;;;;;;;22.77;21.57;;;10.50;73.70;;;;;;5109065;28;21001;-73
2022/02/04 11:09:06;;;;;;;22.30;20.93;;;10.40;73.90;;;;;;5109074;28;20455;-73
2022/02/04 11:11:52;;;;;;;22.00;20.83;;;10.30;73.40;;;;;;5108697;28;20481;-73
2022/02/04 11:31:08;;;;;;;24.43;23.13;;;10.40;72.90;;;;;;5094652;28;21027;-73
2022/02/04 11:34:12;;;;;;;22.80;21.70;;;10.50;73.00;;;;;;5095282;28;20847;-73
2022/02/04 11:37:07;;;;;;;22.70;21.30;;;10.60;72.40;;;;;;5095337;28;20450;-73
2022/02/04 11:51:46;;;;;;;24.03;22.80;;;10.70;71.50;;;;;;5031050;28;20879;-73
2022/02/04 11:54:35;;;;;;;26.60;24.13;;;10.60;72.30;;;;;;5086510;28;20454;-72
2022/02/04 11:57:27;;;;;;;25.17;23.70;;;10.70;73.80;;;;;;5094690;28;20462;-73
2022/02/04 11:59:59;;;;;;;23.77;22.40;;;10.80;72.20;;;;;;5079290;28;20812;-72
2022/02/04 12:02:37;;;;;;;24.13;22.90;;;10.80;74.60;;;;;;5094661;28;20446;-73
2022/02/04 12:05:30;;;;;;;22.70;21.50;;;10.90;72.30;;;;;;5094431;28;20454;-73
2022/02/04 12:08:25;;;;;;;21.17;20.10;;;10.90;70.60;;;;;;5094388;28;20452;-73
2022/02/04 12:10:55;;;;;;;22.13;20.93;;;10.80;71.30;;;;;;5088291;28;20487;-73
2022/02/04 12:13:24;;;;;;;23.27;22.07;;;10.80;70.70;;;;;;5094280;28;20451;-72
2022/02/04 12:15:55;;;;;;;22.90;21.70;;;10.60;71.50;;;;;;5094298;28;20455;-73
2022/02/04 12:18:24;;;;;;;21.97;20.77;;;10.40;71.90;;;;;;5093948;28;20450;-73
2022/02/04 12:21:05;;;;;;;21.70;20.60;;;10.30;71.80;;;;;;5093854;28;20478;-73
2022/02/04 12:23:50;;;;;;;23.77;22.47;;;10.30;71.80;;;;;;5094122;28;20478;-73
2022/02/04 12:26:23;;;;;;;24.03;22.73;;;10.20;72.10;;;;;;5094100;28;20467;-73
2022/02/04 12:28:52;;;;;;;22.83;21.53;;;10.10;72.40;;;;;;5094030;28;20455;-73
2022/02/04 12:31:24;;;;;;;23.43;22.03;;;10.00;71.70;;;;;;5093640;28;20625;-73
2022/02/04 12:33:54;;;;;;;24.90;23.80;;;9.90;72.80;;;;;;5093490;28;20455;-73
2022/02/04 12:36:24;;;;;;;24.10;22.77;;;10.10;72.40;;;;;;5093373;28;20454;-73
2022/02/04 12:38:53;;;;;;;24.07;22.87;;;10.10;72.30;;;;;;5093819;28;20455;-73
2022/02/04 12:41:27;;;;;;;22.33;21.13;;;10.30;71.80;;;;;;5093222;28;20987;-73
2022/02/04 12:43:58;;;;;;;22.70;21.50;;;10.40;70.70;;;;;;5093617;28;20537;-73
2022/02/04 12:46:26;;;;;;;23.47;22.20;;;10.40;70.60;;;;;;5093702;28;20458;-73
2022/02/04 12:49:01;;;;;;;21.70;20.60;;;10.30;70.00;;;;;;5093516;28;20809;-73
2022/02/04 12:51:42;;;;;;;23.60;22.40;;;10.30;70.00;;;;;;5093150;28;20485;-73
2022/02/04 12:54:09;;;;;;;22.90;21.70;;;10.20;70.00;;;;;;5093668;28;20458;-73
2022/02/04 12:56:41;;;;;;;22.00;20.80;;;10.00;70.70;;;;;;5093423;28;20455;-73
2022/02/04 12:59:53;;;;;;;23.80;22.63;;;10.10;70.70;;;;;;5093524;28;20472;-73
2022/02/04 13:02:33;;;;;;;21.73;20.53;;;10.10;70.40;;;;;;5093512;28;20452;-73
2022/02/04 13:07:53;;;;;;;22.93;21.73;;;10.10;70.20;;;;;;5071821;28;20921;-73
2022/02/04 13:10:23;;;;;;;22.00;20.90;;;10.10;70.10;;;;;;5092983;28;20500;-73
2022/02/04 13:12:54;;;;;;;21.00;20.00;;;10.10;69.70;;;;;;5092999;28;20814;-73
2022/02/04 13:15:22;;;;;;;22.73;21.37;;;10.10;69.50;;;;;;5093025;28;20486;-73
2022/02/04 13:17:50;;;;;;;24.27;22.97;;;9.90;68.90;;;;;;5093109;28;20797;-73
2022/02/04 13:20:21;;;;;;;22.53;21.33;;;9.80;69.80;;;;;;5092664;28;20514;-73
2022/02/04 13:22:49;;;;;;;22.47;21.27;;;9.70;70.20;;;;;;5093055;28;20808;-73
2022/02/04 13:25:18;;;;;;;22.57;21.47;;;9.80;70.00;;;;;;5092892;28;20828;-73
2022/02/04 13:28:17;;;;;;;22.60;21.40;;;9.80;70.10;;;;;;5092790;28;20551;-73
2022/02/04 13:30:58;;;;;;;23.50;22.20;;;9.80;69.80;;;;;;5030252;28;20818;-73
2022/02/04 13:33:25;;;;;;;23.57;22.00;;;9.70;70.10;;;;;;5085008;28;20478;-73
2022/02/04 13:35:56;;;;;;;22.10;20.80;;;9.60;71.00;;;;;;5092757;28;20454;-73
2022/02/04 13:38:30;;;;;;;22.07;20.87;;;9.60;70.90;;;;;;5092726;28;20458;-73
2022/02/04 13:44:01;;;;;;;21.70;20.70;;;9.80;70.50;;;;;;5092283;28;20450;-73
2022/02/04 13:46:39;;;;;;;21.20;20.10;;;9.80;70.10;;;;;;5092432;28;20542;-73
2022/02/04 13:49:46;;;;;;;24.10;22.80;;;9.90;69.40;;;;;;5092664;28;20833;-72
2022/02/04 13:52:19;;;;;;;22.53;21.33;;;9.80;69.70;;;;;;5092551;28;20475;-73
2022/02/04 13:54:58;;;;;;;22.57;21.37;;;9.90;69.40;;;;;;5092491;28;20466;-73
2022/02/04 13:57:34;;;;;;;22.50;21.30;;;9.90;70.10;;;;;;5092562;28;20524;-73
2022/02/04 14:00:17;;;;;;;23.50;22.30;;;9.90;69.40;;;;;;5092218;28;20471;-73
2022/02/04 14:02:47;;;;;;;24.80;23.40;;;9.90;69.20;;;;;;5092504;28;20473;-73
2022/02/04 14:05:25;;;;;;;23.20;21.93;;;9.90;70.70;;;;;;5092457;28;20993;-73
2022/02/04 14:07:55;;;;;;;22.57;21.37;;;9.90;70.30;;;;;;5092321;28;20660;-73
2022/02/04 14:10:27;;;;;;;25.50;24.30;;;9.80;70.10;;;;;;5091885;28;20475;-73
2022/02/04 14:13:06;;;;;;;23.90;22.60;;;9.80;69.70;;;;;;5092267;28;21019;-73
2022/02/04 14:15:37;;;;;;;23.87;22.47;;;9.90;69.40;;;;;;5092292;28;20448;-73
2022/02/04 14:18:07;;;;;;;22.93;21.73;;;9.90;69.80;;;;;;5092087;28;20450;-73
2022/02/04 14:20:36;;;;;;;23.07;21.77;;;9.90;69.70;;;;;;5091995;28;20909;-73
2022/02/04 14:23:04;;;;;;;22.50;21.30;;;9.90;71.40;;;;;;5092213;28;20568;-73
2022/02/04 14:25:31;;;;;;;22.37;21.20;;;10.00;70.10;;;;;;5092196;28;20873;-73
2022/02/04 14:28:02;;;;;;;25.07;23.67;;;9.90;69.80;;;;;;5092105;28;20447;-73
2022/02/04 14:30:33;;;;;;;24.10;22.80;;;9.90;70.20;;;;;;5091922;28;20478;-73
2022/02/04 14:33:10;;;;;;;24.13;22.93;;;9.90;69.80;;;;;;5091993;28;20479;-73
2022/02/04 14:35:56;;;;;;;23.57;22.27;;;10.00;69.70;;;;;;5092084;28;20955;-73
2022/02/04 14:50:07;;;;;;;21.80;20.60;;;9.90;69.40;;;;;;5091935;28;20457;-73
2022/02/04 14:52:52;;;;;;;21.90;20.80;;;9.60;70.00;;;;;;5092088;28;20485;-73
2022/02/04 15:00:51;;;;;;;21.70;20.40;;;9.40;70.70;;;;;;5095408;28;20503;-73
2022/02/04 15:03:28;;;;;;;23.50;22.40;;;9.40;71.00;;;;;;5095937;28;20446;-73
2022/02/04 15:06:06;;;;;;;22.43;21.33;;;9.30;71.60;;;;;;5095692;28;20494;-72
2022/02/04 15:08:36;;;;;;;21.80;20.70;;;9.20;72.30;;;;;;5095717;28;20450;-73
2022/02/04 15:11:12;;;;;;;22.00;20.80;;;9.30;71.40;;;;;;5095192;28;20477;-73
2022/02/04 15:13:40;;;;;;;23.47;22.07;;;9.30;71.40;;;;;;5095294;28;20486;-73
2022/02/04 15:16:07;;;;;;;21.80;20.57;;;9.30;71.40;;;;;;5095271;28;20991;-73
2022/02/04 15:18:35;;;;;;;21.50;20.40;;;9.20;72.00;;;;;;5095160;28;20545;-73
2022/02/04 15:21:05;;;;;;;21.63;20.42;;;9.30;72.00;;;;;;5095133;28;20524;-73
2022/02/04 15:23:32;;;;;;;23.00;21.73;;;9.30;72.00;;;;;;5095322;28;20196;-72
2022/02/04 15:25:59;;;;;;;21.92;20.83;;;9.20;71.90;;;;;;5095292;28;20459;-73
2022/02/04 15:28:40;;;;;;;21.52;20.42;;;9.20;71.80;;;;;;5095025;28;20293;-72
2022/02/04 15:31:13;;;;;;;21.83;20.73;;;9.20;72.20;;;;;;5095002;28;20216;-72
2022/02/04 15:33:40;;;;;;;22.92;21.83;;;9.20;72.20;;;;;;5095168;28;20223;-73
2022/02/04 15:36:09;;;;;;;21.23;20.08;;;9.20;72.00;;;;;;5095031;28;20201;-73
2022/02/04 15:38:35;;;;;;;24.10;23.00;;;9.20;72.30;;;;;;5094980;28;20612;-73
2022/02/04 15:41:04;;;;;;;21.25;20.15;;;9.20;71.80;;;;;;5094784;28;20217;-73
2022/02/04 15:43:31;;;;;;;23.42;22.13;;;9.20;72.00;;;;;;5094887;28;20199;-73
2022/02/04 15:46:35;;;;;;;21.33;20.13;;;9.30;72.10;;;;;;5094779;28;20655;-73
2022/02/04 15:49:12;;;;;;;21.90;20.80;;;9.30;71.80;;;;;;5094983;28;20592;-72
2022/02/04 15:51:59;;;;;;;23.10;21.90;;;9.20;72.20;;;;;;5094723;28;20242;-73
2022/02/04 15:54:43;;;;;;;23.33;21.95;;;9.10;72.40;;;;;;5094725;28;20207;-73
2022/02/04 16:00:12;;;;;;;22.15;21.05;;;9.10;73.20;;;;;;5087161;28;20283;-73
2022/02/04 16:02:48;;;;;;;22.25;20.92;;;9.10;73.10;;;;;;5094596;28;20196;-73
2022/02/04 16:05:15;;;;;;;23.27;22.02;;;9.00;73.80;;;;;;5094606;28;20214;-73
2022/02/04 16:07:43;;;;;;;22.05;20.85;;;9.10;73.00;;;;;;5094612;28;20197;-73
2022/02/04 16:10:25;;;;;;;23.40;22.20;;;9.00;73.10;;;;;;5094116;28;20622;-73
2022/02/04 16:12:56;;;;;;;21.43;20.33;;;8.90;73.40;;;;;;5094454;28;20488;-73
2022/02/04 16:15:35;;;;;;;21.80;20.52;;;8.90;73.60;;;;;;5094500;28;21010;-73
2022/02/04 16:18:07;;;;;;;21.98;20.77;;;8.80;73.60;;;;;;5094305;28;20612;-73
2022/02/04 16:20:58;;;;;;;23.67;22.20;;;8.90;74.00;;;;;;5094057;28;20216;-73
2022/02/04 16:23:30;;;;;;;22.40;21.20;;;9.00;73.70;;;;;;5094288;28;20188;-73
2022/02/04 16:26:12;;;;;;;23.05;21.85;;;8.90;73.80;;;;;;5094175;28;20192;-72
2022/02/04 16:28:39;;;;;;;22.35;21.15;;;8.90;73.70;;;;;;5094096;28;20620;-73
2022/02/04 16:31:07;;;;;;;21.13;20.08;;;8.80;74.00;;;;;;5093641;28;20213;-72
2022/02/04 16:33:34;;;;;;;21.60;20.50;;;8.80;74.00;;;;;;5094029;28;20220;-73
2022/02/04 16:36:03;;;;;;;21.20;20.08;;;8.90;73.80;;;;;;5093941;28;20282;-72
2022/02/04 16:38:32;;;;;;;21.13;20.02;;;8.90;74.10;;;;;;5093852;28;20195;-72
2022/02/04 16:41:04;;;;;;;20.60;19.60;;;8.80;74.00;;;;;;5093633;28;20310;-72
2022/02/04 16:43:33;;;;;;;22.33;21.33;;;8.80;74.00;;;;;;5093956;28;20353;-73
2022/02/04 16:46:02;;;;;;;20.10;19.20;;;8.70;74.70;;;;;;5093714;28;20736;-72
2022/02/04 16:48:29;;;;;;;20.35;19.25;;;8.70;74.20;;;;;;5093771;28;20197;-73
2022/02/04 16:50:56;;;;;;;20.25;19.15;;;8.70;74.10;;;;;;5093378;28;20792;-72
2022/02/04 16:53:23;;;;;;;20.98;19.98;;;8.70;74.10;;;;;;5093639;28;20220;-72
2022/02/04 16:55:52;;;;;;;19.70;18.80;;;8.60;74.20;;;;;;5093686;28;20196;-73
2022/02/04 16:58:18;;;;;;;19.50;18.50;;;8.70;74.10;;;;;;5093442;28;20681;-73